createdAt,value
2018-04-10T00:01:33.988Z,55.07
2018-04-10T00:04:01.485Z,50.70
2018-04-10T00:06:29.741Z,53.17
2018-04-10T00:08:57.234Z,52.17
2018-04-10T00:11:24.701Z,55.30
2018-04-10T00:13:52.348Z,53.77
2018-04-10T00:16:19.826Z,49.43
2018-04-10T00:18:47.304Z,53.33
2018-04-10T00:21:14.796Z,50.90
2018-04-10T00:26:35.214Z,50.90
2018-04-10T00:29:02.691Z,54.03
2018-04-10T00:31:30.180Z,54.00
2018-04-10T00:33:57.679Z,49.40
2018-04-10T00:36:25.169Z,50.97
2018-04-10T00:38:52.648Z,50.37
2018-04-10T00:41:20.128Z,50.50
2018-04-10T00:43:47.613Z,52.00
2018-04-10T00:46:15.095Z,48.13
2018-04-10T00:48:43.340Z,49.53
2018-04-10T00:51:10.829Z,53.87
2018-04-10T00:53:39.079Z,52.30
2018-04-10T00:56:06.566Z,54.40
2018-04-10T00:58:34.052Z,55.43
2018-04-10T01:01:01.834Z,54.27
2018-04-10T01:03:29.404Z,56.10
2018-04-10T01:05:56.996Z,58.37
2018-04-10T01:08:24.563Z,56.87
2018-04-10T01:10:52.872Z,57.10
2018-04-10T01:13:20.655Z,58.47
2018-04-10T01:15:48.287Z,57.67
2018-04-10T01:18:15.902Z,57.50
2018-04-10T01:20:44.299Z,58.33
2018-04-10T01:23:11.859Z,62.90
2018-04-10T01:25:40.162Z,58.43
2018-04-10T01:28:07.919Z,57.37
2018-04-10T01:30:36.207Z,64.97
2018-04-10T01:33:04.498Z,65.97
2018-04-10T01:35:32.074Z,58.57
2018-04-10T01:37:59.560Z,63.93
2018-04-10T01:40:27.045Z,65.53
2018-04-10T01:42:55.278Z,68.47
2018-04-10T01:45:22.776Z,62.23
2018-04-10T01:47:51.031Z,68.07
2018-04-10T01:50:18.523Z,62.97
2018-04-10T01:52:46.022Z,60.77
2018-04-10T01:55:13.511Z,62.80
2018-04-10T01:57:41.000Z,73.40
2018-04-10T02:00:08.481Z,62.47
2018-04-10T02:02:35.977Z,66.67
2018-04-10T02:05:03.465Z,64.57
2018-04-10T02:07:31.722Z,67.97
2018-04-10T02:09:59.212Z,68.10
2018-04-10T02:12:26.694Z,60.80
2018-04-10T02:14:54.198Z,60.87
2018-04-10T02:17:21.674Z,62.50
2018-04-10T02:19:49.929Z,68.10
2018-04-10T02:22:17.423Z,71.60
2018-04-10T02:24:44.929Z,60.57
2018-04-10T02:27:12.421Z,61.63
2018-04-10T02:29:39.911Z,64.77
2018-04-10T02:32:07.402Z,61.70
2018-04-10T02:34:34.876Z,71.10
2018-04-10T02:37:02.359Z,58.27
2018-04-10T02:39:30.621Z,63.97
2018-04-10T02:41:58.118Z,58.93
2018-04-10T02:44:25.607Z,58.00
2018-04-10T02:46:53.082Z,57.27
2018-04-10T02:52:21.214Z,54.17
2018-04-10T02:54:49.467Z,57.97
2018-04-10T02:57:16.953Z,49.07
2018-04-10T02:59:45.355Z,55.00
2018-04-10T03:02:12.849Z,54.30
2018-04-10T03:04:40.320Z,51.50
2018-04-10T03:07:07.804Z,54.20
2018-04-10T03:09:36.052Z,51.50
2018-04-10T03:12:03.536Z,56.20
2018-04-10T03:14:31.792Z,51.87
2018-04-10T03:16:59.274Z,49.70
2018-04-10T03:19:27.521Z,52.73
2018-04-10T03:21:55.002Z,49.70
2018-04-10T03:24:22.488Z,54.80
2018-04-10T03:26:49.984Z,51.00
2018-04-10T03:29:17.465Z,57.40
2018-04-10T03:31:44.947Z,50.63
2018-04-10T03:34:12.453Z,55.80
2018-04-10T03:36:39.954Z,54.57
2018-04-10T03:39:08.194Z,55.47
2018-04-10T03:41:35.670Z,49.47
2018-04-10T03:44:03.149Z,54.70
2018-04-10T03:46:31.413Z,52.63
2018-04-10T03:48:58.891Z,56.93
2018-04-10T03:51:26.383Z,56.03
2018-04-10T03:53:53.883Z,59.47
2018-04-10T03:56:21.377Z,55.67
2018-04-10T03:58:48.864Z,58.13
2018-04-10T04:01:16.366Z,54.37
2018-04-10T04:03:43.848Z,56.50
2018-04-10T04:06:12.312Z,61.17
2018-04-10T04:08:40.569Z,57.67
2018-04-10T04:11:08.057Z,60.10
2018-04-10T04:13:36.313Z,60.50
2018-04-10T04:16:03.962Z,56.63
2018-04-10T04:18:43.255Z,60.73
2018-04-10T04:30:08.885Z,61.30
2018-04-10T04:32:36.371Z,64.70
2018-04-10T04:35:04.612Z,65.33
2018-04-10T04:37:32.076Z,57.90
2018-04-10T04:39:59.696Z,61.47
2018-04-10T04:42:27.166Z,68.20
2018-04-10T04:44:54.636Z,60.33
2018-04-10T04:47:22.105Z,59.50
2018-04-10T04:49:49.579Z,59.07
2018-04-10T04:52:17.047Z,62.50
2018-04-10T04:54:45.275Z,63.57
2018-04-10T04:57:12.892Z,62.00
2018-04-10T04:59:40.377Z,61.93
2018-04-10T05:02:07.836Z,59.47
2018-04-10T05:10:28.241Z,56.30
2018-04-10T05:12:56.492Z,60.23
2018-04-10T05:15:23.961Z,60.93
2018-04-10T05:17:51.408Z,63.90
2018-04-10T05:20:18.896Z,68.70
2018-04-10T05:22:46.369Z,55.90
2018-04-10T05:25:13.833Z,57.20
2018-04-10T05:27:41.302Z,59.93
2018-04-10T05:30:08.912Z,59.97
2018-04-10T05:32:36.376Z,55.93
2018-04-10T05:35:04.612Z,52.50
2018-04-10T05:37:32.099Z,52.50
2018-04-10T05:39:59.569Z,54.37
2018-04-10T05:42:27.803Z,54.80
2018-04-10T05:44:55.274Z,54.43
2018-04-10T05:47:22.742Z,55.57
2018-04-10T05:49:50.207Z,55.07
2018-04-10T05:52:17.680Z,58.57
2018-04-10T05:54:45.902Z,61.27
2018-04-10T05:57:13.370Z,54.53
2018-04-10T05:59:40.836Z,56.87
2018-04-10T06:02:08.323Z,55.73
2018-04-10T06:04:36.546Z,61.70
2018-04-10T06:07:04.006Z,54.53
2018-04-10T06:09:31.471Z,63.60
2018-04-10T06:11:58.940Z,58.10
2018-04-10T06:14:26.394Z,56.17
2018-04-10T06:16:53.861Z,54.47
2018-04-10T06:19:21.315Z,50.03
2018-04-10T06:21:48.782Z,55.20
2018-04-10T06:24:16.255Z,58.40
2018-04-10T06:26:43.710Z,61.87
2018-04-10T06:29:11.187Z,60.10
2018-04-10T06:31:39.412Z,55.20
2018-04-10T06:34:06.879Z,52.40
2018-04-10T06:36:34.339Z,57.27
2018-04-10T06:39:01.816Z,56.40
2018-04-10T06:41:29.292Z,53.20
2018-04-10T06:43:57.518Z,53.20
2018-04-10T06:46:24.978Z,51.10
2018-04-10T06:48:52.450Z,59.47
2018-04-10T06:51:19.925Z,50.77
2018-04-10T06:53:47.384Z,52.70
2018-04-10T06:56:14.838Z,52.73
2018-04-10T06:58:42.302Z,54.47
2018-04-10T07:01:09.775Z,56.33
2018-04-10T07:03:38.108Z,55.80
2018-04-10T07:06:05.578Z,49.00
2018-04-10T07:08:33.039Z,51.50
2018-04-10T07:11:00.499Z,55.93
2018-04-10T07:13:27.965Z,51.87
2018-04-10T07:15:55.436Z,54.20
2018-04-10T07:18:23.671Z,52.33
2018-04-10T07:20:51.135Z,52.87
2018-04-10T07:23:18.597Z,49.67
2018-04-10T07:25:46.057Z,48.43
2018-04-10T07:28:13.514Z,50.13
2018-04-10T07:30:40.970Z,47.20
2018-04-10T07:33:08.469Z,50.80
2018-04-10T07:35:35.907Z,51.93
2018-04-10T07:38:03.383Z,52.27
2018-04-10T07:40:30.944Z,45.23
2018-04-10T07:42:59.180Z,48.90
2018-04-10T07:45:26.634Z,52.07
2018-04-10T07:47:54.223Z,50.87
2018-04-10T07:50:21.691Z,54.23
2018-04-10T07:52:49.919Z,63.67
2018-04-10T07:55:17.390Z,54.33
2018-04-10T07:57:44.878Z,57.77
2018-04-10T08:00:12.348Z,59.27
2018-04-10T08:02:40.597Z,56.47
2018-04-10T08:05:08.058Z,58.60
2018-04-10T08:07:35.520Z,61.13
2018-04-10T08:10:02.992Z,58.63
2018-04-10T08:12:31.246Z,61.47
2018-04-10T08:14:58.712Z,62.53
2018-04-10T08:17:26.470Z,66.67
2018-04-10T08:19:53.960Z,68.73
2018-04-10T08:22:22.189Z,63.27
2018-04-10T08:24:49.656Z,63.33
2018-04-10T08:27:17.457Z,57.77
2018-04-10T08:29:44.929Z,60.73
2018-04-10T08:32:12.400Z,60.47
2018-04-10T08:37:11.352Z,62.97
2018-04-10T08:39:38.830Z,63.23
2018-04-10T08:42:07.076Z,61.00
2018-04-10T08:44:34.561Z,58.07
2018-04-10T08:47:02.040Z,58.50
2018-04-10T08:49:29.519Z,55.00
2018-04-10T08:51:57.011Z,63.90
2018-04-10T08:54:24.549Z,60.03
2018-04-10T08:56:52.036Z,58.37
2018-04-10T08:59:19.523Z,58.77
2018-04-10T09:01:47.768Z,56.67
2018-04-10T09:04:15.247Z,54.70
2018-04-10T09:06:43.495Z,54.43
2018-04-10T09:09:10.971Z,54.57
2018-04-10T09:11:38.579Z,56.83
2018-04-10T09:14:06.084Z,49.93
2018-04-10T09:16:33.579Z,51.40
2018-04-10T09:19:01.057Z,49.87
2018-04-10T09:21:28.546Z,48.90
2018-04-10T09:23:56.005Z,49.80
2018-04-10T09:26:23.472Z,48.83
2018-04-10T09:28:50.981Z,47.10
2018-04-10T09:31:18.459Z,46.87
2018-04-10T09:33:45.941Z,45.63
2018-04-10T09:36:13.423Z,45.83
2018-04-10T09:38:40.903Z,45.57
2018-04-10T09:41:08.394Z,44.03
2018-04-10T09:43:35.921Z,37.20
2018-04-10T09:46:03.359Z,37.40
2018-04-10T09:48:30.827Z,39.30
2018-04-10T09:50:59.068Z,33.77
2018-04-10T09:53:26.547Z,38.43
2018-04-10T09:55:54.007Z,34.27
2018-04-10T09:58:21.480Z,32.03
2018-04-10T10:00:48.948Z,35.00
2018-04-10T10:03:16.424Z,32.47
2018-04-10T10:05:43.889Z,32.20
2018-04-10T10:08:11.358Z,30.37
2018-04-10T10:10:38.825Z,34.33
2018-04-10T10:13:06.308Z,32.70
2018-04-10T10:15:33.774Z,31.67
2018-04-10T10:18:02.026Z,29.80
2018-04-10T10:20:29.479Z,34.43
2018-04-10T10:22:56.947Z,33.93
2018-04-10T10:25:24.424Z,30.20
2018-04-10T10:27:51.889Z,31.00
2018-04-10T10:30:20.134Z,31.63
2018-04-10T10:32:47.600Z,36.57
2018-04-10T10:35:15.070Z,35.70
2018-04-10T10:37:42.549Z,31.73
2018-04-10T10:40:10.802Z,32.40
2018-04-10T10:42:38.276Z,34.50
2018-04-10T10:45:06.512Z,35.03
2018-04-10T10:47:33.979Z,33.90
2018-04-10T10:50:01.457Z,32.73
2018-04-10T10:52:28.937Z,31.20
2018-04-10T10:54:57.270Z,39.60
2018-04-10T10:57:24.738Z,34.90
2018-04-10T10:59:52.217Z,31.83
2018-04-10T11:02:20.464Z,34.57
2018-04-10T11:04:47.947Z,34.23
2018-04-10T11:07:16.182Z,31.80
2018-04-10T11:09:43.641Z,37.73
2018-04-10T11:12:11.165Z,33.47
2018-04-10T11:14:38.643Z,32.23
2018-04-10T11:17:06.128Z,29.60
2018-04-10T11:19:33.642Z,31.37
2018-04-10T11:22:01.071Z,28.70
2018-04-10T11:24:28.543Z,37.13
2018-04-10T11:26:56.799Z,31.80
2018-04-10T11:29:24.277Z,33.30
2018-04-10T11:31:52.511Z,27.30
2018-04-10T11:34:19.994Z,29.13
2018-04-10T11:36:47.461Z,29.87
2018-04-10T11:39:15.703Z,32.33
2018-04-10T11:41:43.187Z,33.30
2018-04-10T11:44:10.663Z,32.00
2018-04-10T11:46:38.131Z,28.73
2018-04-10T11:49:05.625Z,36.13
2018-04-10T11:51:33.094Z,32.97
2018-04-10T11:54:00.558Z,26.90
2018-04-10T11:56:34.698Z,28.73
2018-04-10T11:59:02.203Z,25.40
2018-04-10T12:01:29.839Z,32.17
2018-04-10T12:03:58.079Z,24.37
2018-04-10T12:06:25.542Z,26.37
2018-04-10T12:08:53.019Z,33.67
2018-04-10T12:11:21.259Z,25.03
2018-04-10T12:13:48.738Z,30.73
2018-04-10T12:16:16.236Z,31.77
2018-04-10T12:18:43.737Z,28.57
2018-04-10T12:21:11.211Z,28.50
2018-04-10T12:23:38.928Z,30.90
2018-04-10T12:26:06.406Z,25.67
2018-04-10T12:28:33.875Z,25.40
2018-04-10T12:31:01.339Z,31.57
2018-04-10T12:33:28.826Z,32.37
2018-04-10T12:35:57.077Z,26.90
2018-04-10T12:38:24.552Z,26.30
2018-04-10T12:40:52.792Z,22.60
2018-04-10T12:43:20.274Z,34.47
2018-04-10T12:45:47.860Z,28.70
2018-04-10T12:48:16.095Z,27.10
2018-04-10T12:50:43.558Z,28.27
2018-04-10T12:53:11.045Z,28.63
2018-04-10T12:55:39.287Z,32.33
2018-04-10T12:58:06.754Z,27.30
2018-04-10T13:00:34.223Z,24.00
2018-04-10T13:03:01.711Z,23.23
2018-04-10T13:05:29.180Z,28.77
2018-04-10T13:07:56.675Z,26.87
2018-04-10T13:10:24.155Z,28.53
2018-04-10T13:12:51.614Z,25.87
2018-04-10T13:15:19.094Z,24.30
2018-04-10T13:17:47.335Z,26.43
2018-04-10T13:20:14.900Z,25.53
2018-04-10T13:22:42.367Z,19.80
2018-04-10T13:25:09.872Z,20.27
2018-04-10T13:27:37.355Z,24.17
2018-04-10T13:30:04.822Z,26.23
2018-04-10T13:32:32.320Z,25.03
2018-04-10T13:34:59.792Z,27.80
2018-04-10T13:37:27.262Z,29.93
2018-04-10T13:39:54.742Z,24.23
2018-04-10T13:42:22.231Z,24.10
2018-04-10T13:44:49.712Z,26.90
2018-04-10T13:47:17.959Z,22.53
2018-04-10T13:49:45.438Z,19.47
2018-04-10T13:52:13.669Z,26.83
2018-04-10T13:54:41.156Z,25.33
2018-04-10T13:57:08.630Z,26.87
2018-04-10T13:59:37.003Z,21.90
2018-04-10T14:02:04.610Z,20.80
2018-04-10T14:04:32.109Z,26.00
2018-04-10T14:06:59.604Z,18.13
2018-04-10T14:09:27.089Z,21.13
2018-04-10T14:11:54.572Z,19.60
2018-04-10T14:14:22.048Z,24.47
2018-04-10T14:16:49.532Z,20.83
2018-04-10T14:19:17.767Z,21.00
2018-04-10T14:21:45.890Z,21.47
2018-04-10T14:24:16.051Z,26.13
2018-04-10T14:26:43.539Z,25.73
2018-04-10T14:29:11.168Z,23.43
2018-04-10T14:31:38.647Z,26.73
2018-04-10T14:34:06.152Z,23.73
2018-04-10T14:36:33.647Z,23.27
2018-04-10T14:39:01.126Z,23.43
2018-04-10T14:41:28.601Z,20.50
2018-04-10T14:43:56.073Z,22.17
2018-04-10T14:46:24.334Z,18.60
2018-04-10T14:48:51.936Z,21.03
2018-04-10T14:51:19.409Z,22.00
2018-04-10T14:53:46.887Z,19.73
2018-04-10T14:56:14.361Z,14.93
2018-04-10T14:58:41.827Z,20.87
2018-04-10T15:01:10.070Z,19.77
2018-04-10T15:03:37.556Z,18.57
2018-04-10T15:06:05.030Z,22.67
2018-04-10T15:08:33.280Z,18.53
2018-04-10T15:11:00.905Z,22.70
2018-04-10T15:13:28.396Z,17.50
2018-04-10T15:15:55.869Z,24.73
2018-04-10T15:18:24.111Z,19.47
2018-04-10T15:20:51.573Z,18.43
2018-04-10T15:23:19.049Z,17.20
2018-04-10T15:25:46.516Z,20.57
2018-04-10T15:28:13.975Z,16.10
2018-04-10T15:30:41.447Z,20.70
2018-04-10T15:33:09.933Z,21.33
2018-04-10T15:35:38.172Z,21.23
2018-04-10T15:38:05.643Z,17.40
2018-04-10T15:40:33.143Z,18.10
2018-04-10T15:43:00.614Z,19.60
2018-04-10T15:45:33.220Z,17.83
2018-04-10T15:48:03.973Z,20.90
2018-04-10T15:50:31.599Z,23.40
2018-04-10T15:52:59.256Z,18.03
2018-04-10T15:55:28.119Z,19.00
2018-04-10T15:57:55.606Z,22.10
2018-04-10T16:00:23.421Z,22.07
2018-04-10T16:02:50.998Z,17.97
2018-04-10T16:05:19.268Z,20.20
2018-04-10T16:07:47.096Z,17.30
2018-04-10T16:10:14.602Z,18.00
2018-04-10T16:12:42.087Z,20.87
2018-04-10T16:15:09.623Z,20.30
2018-04-10T16:17:39.315Z,18.33
2018-04-10T16:20:06.815Z,20.90
2018-04-10T16:22:34.271Z,18.23
2018-04-10T16:25:01.753Z,19.97
2018-04-10T16:27:29.206Z,20.03
2018-04-10T16:29:56.674Z,17.20
2018-04-10T16:32:24.149Z,18.77
2018-04-10T16:34:51.630Z,20.17
2018-04-10T16:37:22.040Z,23.67
2018-04-10T16:39:49.890Z,18.47
2018-04-10T16:42:17.508Z,22.10
2018-04-10T16:44:46.569Z,27.73
2018-04-10T16:47:15.153Z,18.73
2018-04-10T16:49:42.762Z,23.07
2018-04-10T16:52:10.312Z,20.07
2018-04-10T16:54:39.886Z,20.10
2018-04-10T16:57:07.565Z,22.90
2018-04-10T16:59:35.052Z,23.30
2018-04-10T17:02:02.522Z,22.17
2018-04-10T17:04:29.994Z,22.40
2018-04-10T17:06:57.475Z,18.90
2018-04-10T17:09:25.715Z,19.83
2018-04-10T17:11:53.192Z,19.70
2018-04-10T17:14:20.688Z,20.90
2018-04-10T17:16:48.154Z,18.93
2018-04-10T17:19:15.625Z,23.67
2018-04-10T17:21:43.103Z,20.00
2018-04-10T17:24:11.434Z,27.47
2018-04-10T17:26:39.685Z,22.73
2018-04-10T17:29:07.165Z,27.53
2018-04-10T17:31:35.405Z,16.27
2018-04-10T17:34:13.467Z,20.23
2018-04-10T17:36:40.942Z,27.23
2018-04-10T17:39:08.426Z,21.03
2018-04-10T17:41:36.322Z,19.97
2018-04-10T17:44:04.807Z,20.90
2018-04-10T17:46:32.279Z,21.17
2018-04-10T17:48:59.744Z,16.30
2018-04-10T17:51:28.014Z,18.53
2018-04-10T17:53:56.262Z,24.17
2018-04-10T17:56:23.753Z,18.23
2018-04-10T17:58:51.229Z,19.33
2018-04-10T18:01:18.715Z,18.53
2018-04-10T18:03:46.195Z,24.20
2018-04-10T18:06:13.663Z,20.30
2018-04-10T18:08:41.139Z,15.00
2018-04-10T18:11:08.613Z,18.93
2018-04-10T18:13:36.099Z,21.13
2018-04-10T18:16:03.564Z,18.63
2018-04-10T18:18:31.298Z,19.30
2018-04-10T18:21:02.313Z,18.67
2018-04-10T18:23:30.535Z,20.10
2018-04-10T18:25:57.997Z,23.07
2018-04-10T18:28:25.569Z,21.67
2018-04-10T18:30:53.152Z,21.43
2018-04-10T18:33:20.691Z,19.67
2018-04-10T18:35:48.234Z,17.07
2018-04-10T18:38:15.771Z,19.90
2018-04-10T18:40:43.354Z,20.80
2018-04-10T18:43:10.920Z,14.53
2018-04-10T18:45:38.512Z,14.67
2018-04-10T18:48:06.758Z,19.37
2018-04-10T18:50:34.329Z,24.10
2018-04-10T18:53:01.963Z,14.43
2018-04-10T18:55:29.542Z,19.73
2018-04-10T18:57:57.061Z,21.07
2018-04-10T19:00:25.450Z,21.47
2018-04-10T19:02:52.974Z,24.17
2018-04-10T19:05:20.537Z,24.30
2018-04-10T19:07:52.163Z,20.20
2018-04-10T19:10:19.820Z,19.60
2018-04-10T19:12:47.670Z,22.20
2018-04-10T19:15:15.268Z,17.43
2018-04-10T19:17:42.823Z,18.20
2018-04-10T19:20:10.460Z,19.20
2018-04-10T19:22:37.938Z,19.43
2018-04-10T19:25:06.359Z,17.70
2018-04-10T19:27:33.957Z,24.10
2018-04-10T19:30:01.515Z,19.37
2018-04-10T19:32:29.190Z,18.57
2018-04-10T19:34:56.822Z,17.17
2018-04-10T19:37:24.400Z,19.87
2018-04-10T19:39:52.675Z,18.00
2018-04-10T19:42:20.229Z,19.40
2018-04-10T19:44:47.797Z,20.30
2018-04-10T19:47:15.580Z,21.37
2018-04-10T19:49:43.161Z,21.53
2018-04-10T19:52:10.850Z,17.93
2018-04-10T19:54:38.502Z,20.03
2018-04-10T19:57:05.989Z,18.17
2018-04-10T19:59:33.620Z,15.40
2018-04-10T20:02:01.909Z,14.73
2018-04-10T20:04:29.481Z,18.33
2018-04-10T20:07:10.685Z,14.23
2018-04-10T20:09:38.209Z,15.40
2018-04-10T20:12:05.831Z,15.63
2018-04-10T20:14:33.392Z,16.33
2018-04-10T20:17:01.795Z,16.13
2018-04-10T20:19:36.303Z,17.57
2018-04-10T20:22:04.044Z,24.03
2018-04-10T20:24:31.914Z,16.87
2018-04-10T20:26:59.538Z,13.83
2018-04-10T20:29:27.149Z,16.67
2018-04-10T20:31:54.611Z,14.00
2018-04-10T20:34:22.075Z,13.53
2018-04-10T20:40:03.178Z,15.63
2018-04-10T20:42:30.643Z,13.93
2018-04-10T20:44:58.107Z,14.03
2018-04-10T20:47:26.339Z,14.47
2018-04-10T20:49:53.797Z,17.30
2018-04-10T20:52:21.400Z,14.80
2018-04-10T20:54:48.863Z,16.60
2018-04-10T20:57:17.089Z,14.37
2018-04-10T20:59:44.540Z,14.20
2018-04-10T21:02:12.014Z,13.33
2018-04-10T21:04:39.709Z,14.20
2018-04-10T21:07:07.189Z,14.67
2018-04-10T21:09:36.240Z,15.47
2018-04-10T21:12:04.668Z,11.87
2018-04-10T21:14:32.997Z,13.40
2018-04-10T21:17:00.572Z,15.00
2018-04-10T21:19:28.121Z,11.80
2018-04-10T21:21:55.688Z,12.63
2018-04-10T21:24:23.478Z,10.70
2018-04-10T21:26:51.054Z,15.37
2018-04-10T21:29:19.384Z,14.73
2018-04-10T21:31:46.918Z,16.47
2018-04-10T21:34:15.403Z,12.83
2018-04-10T21:36:43.843Z,14.30
2018-04-10T21:39:12.139Z,11.73
2018-04-10T21:41:39.778Z,14.90
2018-04-10T21:44:07.235Z,13.10
2018-04-10T21:46:35.458Z,15.60
2018-04-10T21:49:02.921Z,14.30
2018-04-10T21:51:30.382Z,18.27
2018-04-10T21:53:57.849Z,13.60
2018-04-10T21:56:25.318Z,13.80
2018-04-10T21:58:52.909Z,9.77
2018-04-10T22:01:20.367Z,11.20
2018-04-10T22:03:47.830Z,13.33
2018-04-10T22:06:16.104Z,13.37
2018-04-10T22:08:43.521Z,12.67
2018-04-10T22:11:10.974Z,9.60
2018-04-10T22:13:38.426Z,16.77
2018-04-10T22:16:06.034Z,9.43
2018-04-10T22:18:35.097Z,10.57
2018-04-10T22:21:02.584Z,12.73
2018-04-10T22:23:30.041Z,15.50
2018-04-10T22:25:57.888Z,10.13
2018-04-10T22:28:25.779Z,11.77
2018-04-10T22:30:53.211Z,16.13
2018-04-10T22:33:20.640Z,11.67
2018-04-10T22:35:48.102Z,11.50
2018-04-10T22:38:15.563Z,13.83
2018-04-10T22:40:43.020Z,11.37
2018-04-10T22:43:10.487Z,12.30
2018-04-10T22:45:37.950Z,10.30
2018-04-10T22:48:06.186Z,10.90
2018-04-10T22:50:33.640Z,15.80
2018-04-10T22:53:01.108Z,8.73
2018-04-10T22:55:28.575Z,11.73
2018-04-10T22:57:56.035Z,10.23
2018-04-10T23:00:33.344Z,13.73
2018-04-10T23:03:01.587Z,10.37
2018-04-10T23:05:29.056Z,15.03
2018-04-10T23:07:56.519Z,13.73
2018-04-10T23:10:24.137Z,9.70
2018-04-10T23:12:51.609Z,10.03
2018-04-10T23:15:19.079Z,12.73
2018-04-10T23:17:46.538Z,10.37
2018-04-10T23:20:13.999Z,10.03
2018-04-10T23:22:41.468Z,11.17
2018-04-10T23:25:08.929Z,11.10
2018-04-10T23:27:36.410Z,14.53
2018-04-10T23:30:03.868Z,9.80
2018-04-10T23:32:31.358Z,9.57
2018-04-10T23:34:59.617Z,8.87
2018-04-10T23:37:27.066Z,9.97
2018-04-10T23:42:49.295Z,13.63
2018-04-10T23:45:16.765Z,13.13
2018-04-10T23:47:44.223Z,12.13
2018-04-10T23:50:11.685Z,12.37
2018-04-10T23:52:39.153Z,8.70
2018-04-10T23:55:06.819Z,15.13
2018-04-10T23:57:34.271Z,14.63
